createdAt,value
2022-12-18T00:02:32.743Z,100959.84
2022-12-18T00:05:34.447Z,100952.84
2022-12-18T00:08:36.408Z,100970.63
2022-12-18T00:11:37.912Z,100973.28
2022-12-18T00:14:39.363Z,100964.03
2022-12-18T00:17:43.172Z,100963.97
2022-12-18T00:20:44.653Z,100970.16
2022-12-18T00:23:47.570Z,100971.97
2022-12-18T00:26:49.085Z,100959.34
2022-12-18T00:29:50.570Z,100950.75
2022-12-18T00:32:52.047Z,100949.38
2022-12-18T00:35:53.452Z,100945.03
2022-12-18T00:38:56.416Z,100946.50
2022-12-18T00:42:16.512Z,100950.78
2022-12-18T00:45:18.131Z,100967.88
2022-12-18T00:48:19.688Z,100964.72
2022-12-18T00:51:21.219Z,100950.13
2022-12-18T00:54:22.889Z,100946.63
2022-12-18T00:57:25.209Z,100939.91
2022-12-18T01:00:26.726Z,100940.25
2022-12-18T01:03:28.261Z,100943.13
2022-12-18T01:06:30.351Z,100944.97
2022-12-18T01:09:31.856Z,100949.25
2022-12-18T01:12:33.711Z,100952.56
2022-12-18T01:15:35.219Z,100949.06
2022-12-18T01:18:37.233Z,100958.41
2022-12-18T01:21:38.818Z,100957.47
2022-12-18T01:24:40.407Z,100960.94
2022-12-18T01:27:41.920Z,100962.69
2022-12-18T01:30:43.372Z,100968.50
2022-12-18T01:33:45.550Z,100970.19
2022-12-18T01:36:47.048Z,100977.22
2022-12-18T01:39:48.531Z,100978.97
2022-12-18T01:42:54.263Z,100979.91
2022-12-18T01:45:55.766Z,100984.22
2022-12-18T01:49:00.915Z,100980.69
2022-12-18T01:52:02.462Z,100984.28
2022-12-18T01:55:07.068Z,100980.56
2022-12-18T01:58:08.629Z,100977.19
2022-12-18T02:01:10.635Z,100978.19
2022-12-18T02:04:22.851Z,100971.31
2022-12-18T02:07:30.429Z,100974.91
2022-12-18T02:10:41.265Z,100976.63
2022-12-18T02:14:02.889Z,100975.25
2022-12-18T02:17:22.062Z,100973.50
2022-12-18T02:20:31.744Z,100972.84
2022-12-18T02:23:46.101Z,100979.53
2022-12-18T02:26:51.765Z,100979.44
2022-12-18T02:29:59.698Z,100977.41
2022-12-18T02:33:06.213Z,100983.47
2022-12-18T02:36:10.861Z,100984.00
2022-12-18T02:39:16.274Z,100988.16
2022-12-18T02:42:30.180Z,100981.63
2022-12-18T02:45:32.126Z,100974.81
2022-12-18T02:48:35.927Z,100976.66
2022-12-18T02:51:52.785Z,100969.66
2022-12-18T02:55:06.821Z,100981.59
2022-12-18T02:58:17.521Z,100982.41
2022-12-18T03:01:58.741Z,100983.09
2022-12-18T03:05:10.409Z,100994.72
2022-12-18T03:08:18.414Z,100992.63
2022-12-18T03:11:41.196Z,100999.69
2022-12-18T03:14:45.937Z,100988.66
2022-12-18T03:18:14.462Z,100988.41
2022-12-18T03:21:20.575Z,100985.91
2022-12-18T03:24:23.582Z,100994.28
2022-12-18T03:27:29.066Z,100989.25
2022-12-18T03:30:38.321Z,100979.31
2022-12-18T03:33:46.664Z,100984.91
2022-12-18T03:36:49.469Z,100991.66
2022-12-18T03:39:51.163Z,100992.88
2022-12-18T03:43:04.398Z,100988.53
2022-12-18T03:46:17.048Z,100985.47
2022-12-18T03:49:32.224Z,100991.09
2022-12-18T03:52:39.126Z,100990.13
2022-12-18T03:55:44.425Z,100993.81
2022-12-18T03:58:48.714Z,101004.25
2022-12-18T04:01:59.879Z,101005.94
2022-12-18T04:05:05.778Z,101001.31
2022-12-18T04:08:10.004Z,100993.38
2022-12-18T04:11:16.349Z,100996.88
2022-12-18T04:14:21.132Z,100991.84
2022-12-18T04:17:27.075Z,100991.78
2022-12-18T04:20:28.604Z,100980.84
2022-12-18T04:23:30.349Z,100974.59
2022-12-18T04:26:33.957Z,100975.91
2022-12-18T04:29:47.271Z,100979.19
2022-12-18T04:32:52.342Z,100970.75
2022-12-18T04:35:55.083Z,100980.22
2022-12-18T04:38:56.661Z,100984.72
2022-12-18T04:41:58.591Z,100976.94
2022-12-18T04:45:00.014Z,100972.84
2022-12-18T04:48:03.180Z,100982.03
2022-12-18T04:51:06.058Z,100983.88
2022-12-18T04:54:07.847Z,100988.22
2022-12-18T04:57:09.488Z,100983.69
2022-12-18T05:00:11.628Z,100969.44
2022-12-18T05:03:13.131Z,100977.91
2022-12-18T05:06:14.996Z,100975.22
2022-12-18T05:09:16.475Z,100966.75
2022-12-18T05:12:18.301Z,100972.84
2022-12-18T05:15:19.716Z,100976.28
2022-12-18T05:18:21.711Z,100974.47
2022-12-18T05:21:23.202Z,100965.03
2022-12-18T05:24:24.640Z,100969.25
2022-12-18T05:27:26.299Z,100974.34
2022-12-18T05:30:28.525Z,100969.91
2022-12-18T05:33:31.644Z,100975.19
2022-12-18T05:36:33.112Z,100982.91
2022-12-18T05:39:34.525Z,100981.94
2022-12-18T05:42:35.928Z,100982.81
2022-12-18T05:45:39.079Z,100984.44
2022-12-18T05:48:40.761Z,100985.59
2022-12-18T05:51:42.320Z,100991.44
2022-12-18T05:54:44.416Z,100987.97
2022-12-18T05:57:45.904Z,100994.78
2022-12-18T06:00:47.516Z,101007.38
2022-12-18T06:03:49.476Z,101009.47
2022-12-18T06:06:50.997Z,101019.66
2022-12-18T06:09:52.409Z,101022.03
2022-12-18T06:12:53.921Z,101027.09
2022-12-18T06:15:55.334Z,101032.31
2022-12-18T06:19:01.078Z,101031.44
2022-12-18T06:22:02.945Z,101035.78
2022-12-18T06:25:05.046Z,101038.13
2022-12-18T06:28:06.621Z,101037.97
2022-12-18T06:31:08.274Z,101052.53
2022-12-18T06:34:09.871Z,101056.13
2022-12-18T06:37:11.373Z,101065.53
2022-12-18T06:40:12.891Z,101059.75
2022-12-18T06:43:14.375Z,101062.19
2022-12-18T06:46:15.952Z,101057.88
2022-12-18T06:49:17.485Z,101063.63
2022-12-18T06:52:18.932Z,101065.28
2022-12-18T06:55:20.376Z,101056.03
2022-12-18T06:58:21.807Z,101063.84
2022-12-18T07:01:23.831Z,101057.88
2022-12-18T07:04:30.140Z,101057.00
2022-12-18T07:07:31.643Z,101059.53
2022-12-18T07:10:33.167Z,101052.59
2022-12-18T07:13:34.650Z,101048.16
2022-12-18T07:16:36.182Z,101048.19
2022-12-18T07:19:38.206Z,101043.22
2022-12-18T07:22:39.642Z,101049.81
2022-12-18T07:25:41.105Z,101045.72
2022-12-18T07:28:43.440Z,101049.97
2022-12-18T07:31:45.012Z,101050.84
2022-12-18T07:34:46.482Z,101060.22
2022-12-18T07:37:49.154Z,101068.69
2022-12-18T07:40:50.557Z,101079.75
2022-12-18T07:43:52.090Z,101081.38
2022-12-18T07:46:53.567Z,101083.00
2022-12-18T07:49:55.140Z,101087.41
2022-12-18T07:52:56.670Z,101085.75
2022-12-18T07:56:26.427Z,101099.41
2022-12-18T07:59:24.791Z,101087.59
2022-12-18T08:02:26.442Z,101095.28
2022-12-18T08:05:28.111Z,101107.19
2022-12-18T08:08:30.772Z,101109.69
2022-12-18T08:11:32.376Z,101109.66
2022-12-18T08:14:33.891Z,101105.38
2022-12-18T08:17:35.598Z,101104.41
2022-12-18T08:20:37.056Z,101095.00
2022-12-18T08:23:42.728Z,101101.91
2022-12-18T08:26:55.856Z,101091.78
2022-12-18T08:30:07.339Z,101098.41
2022-12-18T08:33:08.865Z,101086.59
2022-12-18T08:36:11.041Z,101083.28
2022-12-18T08:39:12.526Z,101067.19
2022-12-18T08:42:32.376Z,101062.00
2022-12-18T08:45:34.846Z,101060.94
2022-12-18T08:48:36.726Z,101054.06
2022-12-18T08:51:38.673Z,101049.41
2022-12-18T08:54:40.172Z,101052.81
2022-12-18T08:57:41.601Z,101061.13
2022-12-18T09:00:43.049Z,101066.44
2022-12-18T09:03:44.956Z,101071.50
2022-12-18T09:06:46.593Z,101070.34
2022-12-18T09:09:48.105Z,101070.22
2022-12-18T09:12:49.608Z,101073.63
2022-12-18T09:15:56.189Z,101072.09
2022-12-18T09:19:00.622Z,101072.44
2022-12-18T09:22:02.256Z,101069.94
2022-12-18T09:25:03.930Z,101063.09
2022-12-18T09:28:15.488Z,101079.16
2022-12-18T09:31:18.679Z,101088.31
2022-12-18T09:34:22.721Z,101088.28
2022-12-18T09:37:24.226Z,101090.81
2022-12-18T09:40:36.853Z,101089.78
2022-12-18T09:43:48.198Z,101101.88
2022-12-18T09:47:19.315Z,101094.88
2022-12-18T09:50:39.014Z,101105.88
2022-12-18T09:53:45.678Z,101117.09
2022-12-18T09:56:47.628Z,101117.06
2022-12-18T09:59:55.843Z,101121.16
2022-12-18T10:03:04.360Z,101120.03
2022-12-18T10:06:19.372Z,101116.81
2022-12-18T10:09:48.009Z,101104.28
2022-12-18T10:13:12.090Z,101100.69
2022-12-18T10:16:18.628Z,101097.84
2022-12-18T10:19:58.427Z,101089.03
2022-12-18T10:23:10.516Z,101080.22
2022-12-18T10:26:13.507Z,101079.97
2022-12-18T10:29:17.574Z,101081.16
2022-12-18T10:32:28.824Z,101082.53
2022-12-18T10:35:30.385Z,101089.22
2022-12-18T10:38:33.009Z,101089.13
2022-12-18T11:24:41.663Z,101046.38
2022-12-18T11:27:50.322Z,101050.00
2022-12-18T11:31:09.428Z,101041.41
2022-12-18T11:34:30.033Z,101038.91
2022-12-18T11:37:33.719Z,101049.19
2022-12-18T11:40:41.626Z,101039.09
2022-12-18T11:44:01.896Z,101039.25
2022-12-18T11:47:38.215Z,101031.75
2022-12-18T11:50:49.585Z,101031.53
2022-12-18T11:53:52.795Z,101035.75
2022-12-18T11:57:20.505Z,101017.50
2022-12-18T12:00:23.560Z,101010.63
2022-12-18T12:03:52.905Z,101017.06
2022-12-18T12:07:18.735Z,101019.63
2022-12-18T12:10:37.292Z,101029.84
2022-12-18T12:14:11.768Z,101027.09
2022-12-18T12:17:36.017Z,101012.44
2022-12-18T12:20:47.025Z,101005.31
2022-12-18T12:24:24.246Z,101001.59
2022-12-18T12:27:44.594Z,101015.91
2022-12-18T12:31:16.448Z,101011.72
2022-12-18T12:34:23.601Z,101021.81
2022-12-18T12:37:59.597Z,101015.31
2022-12-18T12:41:06.194Z,101020.59
2022-12-18T12:44:14.289Z,101021.28
2022-12-18T12:47:21.617Z,101016.81
2022-12-18T12:50:24.328Z,101019.91
2022-12-18T12:53:35.865Z,101012.34
2022-12-18T12:56:42.206Z,100999.19
2022-12-18T13:00:11.294Z,100999.44
2022-12-18T13:03:32.677Z,100989.06
2022-12-18T13:06:42.998Z,100985.84
2022-12-18T13:10:17.748Z,100973.78
2022-12-18T13:13:23.652Z,100982.78
2022-12-18T13:16:28.368Z,100971.91
2022-12-18T13:19:30.241Z,100965.88
2022-12-18T13:22:52.296Z,100964.72
2022-12-18T13:26:12.029Z,100968.44
2022-12-18T13:29:44.348Z,100977.47
2022-12-18T13:32:45.863Z,100964.78
2022-12-18T13:35:48.353Z,100966.59
2022-12-18T13:39:23.888Z,100952.69
2022-12-18T13:43:05.593Z,100949.25
2022-12-18T13:46:23.051Z,100955.19
2022-12-18T13:49:45.352Z,100962.63
2022-12-18T13:52:47.157Z,100958.31
2022-12-18T13:55:50.433Z,100952.00
2022-12-18T13:59:10.982Z,100952.84
2022-12-18T14:02:23.238Z,100950.16
2022-12-18T14:05:27.537Z,100950.22
2022-12-18T14:08:35.619Z,100939.69
2022-12-18T14:11:38.250Z,100934.44
2022-12-18T14:14:48.171Z,100939.03
2022-12-18T14:17:52.418Z,100936.94
2022-12-18T14:20:57.644Z,100938.34
2022-12-18T14:24:18.276Z,100942.84
2022-12-18T14:27:26.816Z,100947.19
2022-12-18T14:30:32.024Z,100942.63
2022-12-18T14:33:33.555Z,100956.75
2022-12-18T14:36:35.013Z,100957.13
2022-12-18T14:39:36.467Z,100959.88
2022-12-18T14:42:38.362Z,100950.34
2022-12-18T14:45:47.077Z,100945.09
2022-12-18T14:48:49.301Z,100955.59
2022-12-18T14:51:56.446Z,100953.84
2022-12-18T14:54:57.990Z,100955.94
2022-12-18T14:57:59.493Z,100961.38
2022-12-18T15:01:01.091Z,100955.34
2022-12-18T15:04:04.207Z,100959.50
2022-12-18T15:07:13.833Z,100967.94
2022-12-18T15:10:20.878Z,100980.44
2022-12-18T15:13:24.076Z,100972.59
2022-12-18T15:16:25.987Z,100979.47
2022-12-18T15:19:39.458Z,100968.06
2022-12-18T15:22:40.985Z,100976.81
2022-12-18T15:25:42.591Z,100966.50
2022-12-18T15:28:58.314Z,100969.81
2022-12-18T15:32:05.700Z,100967.19
2022-12-18T15:35:19.717Z,100971.47
2022-12-18T15:38:21.179Z,100973.91
2022-12-18T15:41:24.823Z,100973.88
2022-12-18T15:44:26.675Z,100962.97
2022-12-18T15:47:29.210Z,100955.31
2022-12-18T15:50:30.760Z,100955.31
2022-12-18T15:53:34.596Z,100967.84
2022-12-18T15:56:54.625Z,100979.78
2022-12-18T16:00:00.133Z,100977.41
2022-12-18T16:03:01.943Z,100975.75
2022-12-18T16:06:04.093Z,100975.53
2022-12-18T16:09:06.156Z,100980.50
2022-12-18T16:12:16.484Z,100960.78
2022-12-18T16:15:24.107Z,100951.47
2022-12-18T16:18:26.212Z,100942.97
2022-12-18T16:21:32.275Z,100947.41
2022-12-18T16:24:37.127Z,100946.66
2022-12-18T16:27:38.756Z,100955.84
2022-12-18T16:30:41.220Z,100949.75
2022-12-18T16:33:43.404Z,100939.59
2022-12-18T16:36:45.395Z,100940.50
2022-12-18T16:39:46.939Z,100945.72
2022-12-18T16:42:48.516Z,100947.34
2022-12-18T16:45:49.988Z,100943.22
2022-12-18T16:48:51.449Z,100949.00
2022-12-18T16:51:52.882Z,100938.69
2022-12-18T16:54:54.456Z,100962.75
2022-12-18T16:57:55.961Z,100942.22
2022-12-18T17:00:57.931Z,100936.91
2022-12-18T17:04:03.686Z,100933.06
2022-12-18T17:07:05.178Z,100926.16
2022-12-18T17:10:07.019Z,100924.16
2022-12-18T17:13:08.483Z,100910.47
2022-12-18T17:16:10.170Z,100898.53
2022-12-18T17:19:16.805Z,100906.06
2022-12-18T17:22:19.303Z,100887.34
2022-12-18T17:25:20.780Z,100882.66
2022-12-18T17:28:23.031Z,100885.03
2022-12-18T17:31:28.240Z,100896.75
2022-12-18T17:34:29.797Z,100895.94
2022-12-18T17:37:31.873Z,100886.53
2022-12-18T17:40:33.524Z,100882.03
2022-12-18T17:43:36.496Z,100888.06
2022-12-18T17:46:38.019Z,100889.78
2022-12-18T17:49:39.745Z,100900.84
2022-12-18T17:52:42.006Z,100904.41
2022-12-18T17:55:43.535Z,100908.78
2022-12-18T17:58:45.255Z,100920.91
2022-12-18T18:01:46.897Z,100931.44
2022-12-18T18:04:48.506Z,100922.72
2022-12-18T18:07:50.119Z,100927.00
2022-12-18T18:10:53.543Z,100925.16
2022-12-18T18:14:01.043Z,100908.69
2022-12-18T18:17:04.885Z,100911.97
2022-12-18T18:20:07.285Z,100915.59
2022-12-18T18:23:08.773Z,100924.50
2022-12-18T18:26:10.197Z,100927.00
2022-12-18T18:29:18.717Z,100922.47
2022-12-18T18:32:20.879Z,100910.34
2022-12-18T18:35:52.507Z,100901.00
2022-12-18T18:38:48.231Z,100891.78
2022-12-18T18:41:50.739Z,100891.78
2022-12-18T18:44:52.240Z,100890.81
2022-12-18T18:47:53.878Z,100884.66
2022-12-18T18:50:59.610Z,100882.13
2022-12-18T18:54:01.169Z,100876.94
2022-12-18T19:00:24.484Z,100876.91
2022-12-18T19:03:26.751Z,100866.56
2022-12-18T19:06:29.009Z,100854.53
2022-12-18T19:09:31.364Z,100846.75
2022-12-18T19:12:53.050Z,100853.13
2022-12-18T19:16:05.741Z,100843.59
2022-12-18T19:19:08.187Z,100846.84
2022-12-18T19:22:10.860Z,100843.44
2022-12-18T19:25:12.413Z,100839.50
2022-12-18T19:28:22.145Z,100831.44
2022-12-18T19:31:26.255Z,100830.72
2022-12-18T19:34:31.485Z,100840.13
2022-12-18T19:37:35.085Z,100830.47
2022-12-18T19:40:40.781Z,100832.88
2022-12-18T19:43:42.436Z,100822.81
2022-12-18T19:46:46.138Z,100825.47
2022-12-18T19:49:47.736Z,100838.97
2022-12-18T19:52:49.435Z,100839.81
2022-12-18T19:55:51.034Z,100839.88
2022-12-18T19:58:54.348Z,100855.31
2022-12-18T20:01:56.033Z,100860.47
2022-12-18T20:04:57.588Z,100861.47
2022-12-18T20:07:59.050Z,100873.56
2022-12-18T20:11:00.480Z,100873.16
2022-12-18T20:14:02.680Z,100853.53
2022-12-18T20:17:04.237Z,100842.78
2022-12-18T20:20:07.442Z,100829.78
2022-12-18T20:23:09.469Z,100841.22
2022-12-18T20:26:11.257Z,100855.41
2022-12-18T20:29:12.770Z,100858.00
2022-12-18T20:32:14.749Z,100863.56
2022-12-18T20:35:16.398Z,100858.72
2022-12-18T20:38:18.304Z,100850.97
2022-12-18T20:41:22.689Z,100834.91
2022-12-18T20:44:24.596Z,100828.31
2022-12-18T20:47:26.327Z,100828.09
2022-12-18T20:50:28.296Z,100825.56
2022-12-18T20:53:29.742Z,100838.97
2022-12-18T20:56:31.678Z,100833.56
2022-12-18T20:59:33.309Z,100834.00
2022-12-18T21:02:34.977Z,100828.09
2022-12-18T21:05:36.592Z,100823.41
2022-12-18T21:08:39.367Z,100838.38
2022-12-18T21:11:59.498Z,100825.16
2022-12-18T21:15:02.429Z,100823.22
2022-12-18T21:18:04.454Z,100830.13
2022-12-18T21:21:06.001Z,100823.16
2022-12-18T21:24:09.616Z,100815.97
2022-12-18T21:27:13.014Z,100814.00
2022-12-18T21:30:19.451Z,100799.28
2022-12-18T21:33:21.198Z,100799.94
2022-12-18T21:36:22.918Z,100809.31
2022-12-18T21:39:25.897Z,100812.59
2022-12-18T21:42:46.079Z,100803.19
2022-12-18T21:45:47.600Z,100811.84
2022-12-18T21:48:49.103Z,100824.38
2022-12-18T21:51:53.343Z,100811.09
2022-12-18T21:54:54.892Z,100820.09
2022-12-18T21:57:56.617Z,100815.66
2022-12-18T22:00:58.131Z,100796.81
2022-12-18T22:03:59.783Z,100808.09
2022-12-18T22:07:01.815Z,100801.84
2022-12-18T22:10:03.565Z,100814.97
2022-12-18T22:13:06.281Z,100817.84
2022-12-18T22:16:07.835Z,100808.44
2022-12-18T22:19:10.885Z,100819.44
2022-12-18T22:22:12.539Z,100827.00
2022-12-18T22:25:14.162Z,100822.59
2022-12-18T22:28:34.264Z,100820.00
2022-12-18T22:31:36.019Z,100815.78
2022-12-18T22:34:38.579Z,100831.13
2022-12-18T22:37:40.090Z,100819.41
2022-12-18T22:40:41.601Z,100828.28
2022-12-18T22:43:43.410Z,100826.72
2022-12-18T22:46:47.339Z,100825.28
2022-12-18T22:49:52.467Z,100813.59
2022-12-18T22:52:53.949Z,100797.34
2022-12-18T22:56:01.249Z,100798.13
2022-12-18T22:59:04.027Z,100800.59
2022-12-18T23:02:05.610Z,100803.97
2022-12-18T23:05:07.421Z,100800.59
2022-12-18T23:08:09.146Z,100792.63
2022-12-18T23:11:11.592Z,100793.56
2022-12-18T23:14:13.295Z,100780.78
2022-12-18T23:17:14.811Z,100781.31
2022-12-18T23:20:16.381Z,100774.28
2022-12-18T23:23:18.267Z,100765.63
2022-12-18T23:26:22.645Z,100760.16
2022-12-18T23:29:24.131Z,100754.91
2022-12-18T23:32:25.570Z,100753.53
2022-12-18T23:35:27.083Z,100753.66
2022-12-18T23:38:29.342Z,100748.22
2022-12-18T23:41:32.680Z,100748.75
2022-12-18T23:44:34.607Z,100750.41
2022-12-18T23:47:36.083Z,100745.25
2022-12-18T23:50:38.270Z,100740.81
2022-12-18T23:53:39.908Z,100745.72
2022-12-18T23:56:41.486Z,100740.91
2022-12-18T23:59:43.107Z,100748.28
